Latest Weather Observations for Maria Island

IDT60801

Issued at 11:21 am EST Monday 1 June 2020 (issued every 10 minutes, with the page automatically refreshed every 10 minutes)

About weather observations | Map of weather stations | Latest weather observations for TAS | Other Formats
Station Details ID: 092124 Name: MARIA ISLAND (POINT LESUEUR) Lat: -42.66 Lon: 148.02 Height: 28.0 m
Data from the previous 72 hours. | See also: Recent months at Maria Island
Date/Time
EST
Temp
°C
App
Temp
°C
Dew
Point
°C
Rel
Hum
%
Delta-T
°C
Wind Press
QNH
hPa
Press
MSL
hPa
Rain since
9am
mm
Dir  Spd
km/h
Gust
km/h
Spd
kts
Gust
kts
01/11:00am 13.5 7.9 8.8 73 2.4 N 28 32 15 17 1002.0 1002.0 0.0
01/10:30am 13.0 7.6 8.1 72 2.4 N 26 30 14 16 1002.2 1002.2 0.0
01/10:00am 12.9 7.5 8.0 72 2.4 N 26 30 14 16 1002.0 1002.0 0.0
01/09:30am 12.4 6.5 7.7 73 2.3 N 28 32 15 17 1002.1 1002.1 0.0
01/09:00am 12.1 6.2 7.6 74 2.2 N 28 32 15 17 1001.8 1001.8 0.0
01/08:30am 11.7 5.8 7.4 75 2.1 N 28 32 15 17 1001.6 1001.6 0.0
01/08:00am 11.3 5.3 7.0 75 2.1 N 28 35 15 19 1001.5 1001.5 0.0
01/07:30am 11.3 4.3 7.0 75 2.1 N 33 37 18 20 1001.3 1001.3 0.0
01/07:00am 11.4 5.4 6.9 74 2.2 N 28 33 15 18 1001.1 1001.1 0.0
01/06:30am 11.5 4.7 7.0 74 2.2 N 32 39 17 21 1000.9 1000.9 0.0
01/06:00am 11.6 4.8 7.1 74 2.2 N 32 35 17 19 1000.7 1000.7 0.0
01/05:30am 11.7 5.7 7.0 73 2.2 N 28 33 15 18 1000.9 1000.9 0.0
01/05:00am 11.7 6.1 7.0 73 2.3 N 26 30 14 16 1001.0 1001.0 0.0
01/04:30am 11.7 6.1 7.0 73 2.2 N 26 32 14 17 1000.9 1000.9 0.0
01/04:00am 11.5 5.8 6.8 73 2.2 N 26 30 14 16 1001.1 1001.1 0.0
01/03:30am 11.5 4.7 7.0 74 2.2 N 32 37 17 20 1001.1 1001.1 0.0
01/03:00am 11.4 3.7 7.1 75 2.1 N 37 41 20 22 1001.2 1001.2 0.0
01/02:30am 11.2 4.4 6.9 75 2.0 N 32 35 17 19 1001.5 1001.5 0.0
01/02:00am 11.2 3.5 6.9 75 2.1 N 37 43 20 23 1001.4 1001.4 0.0
01/01:30am 11.2 3.0 6.5 73 2.2 N 39 46 21 25 1001.7 1001.7 0.0
01/01:00am 11.3 3.5 6.6 73 2.2 N 37 46 20 25 1001.9 1001.9 0.0
01/12:30am 11.2 4.0 6.1 71 2.4 NNW 33 39 18 21 1002.3 1002.3 0.0
01/12:00am 11.2 3.7 6.3 72 2.3 N 35 48 19 26 1002.4 1002.4 0.0
 
Date/Time
EST
Temp
°C
App
Temp
°C
Dew
Point
°C
Rel
Hum
%
Delta-T
°C
Wind Press
QNH
hPa
Press
MSL
hPa
Rain since
9am
mm
Dir  Spd
km/h
Gust
km/h
Spd
kts
Gust
kts
31/11:30pm 11.1 4.0 6.5 73 2.2 N 33 41 18 22 1003.0 1003.0 0.0
31/11:00pm 11.3 4.4 6.6 73 2.2 N 32 35 17 19 1003.2 1003.2 0.0
31/10:30pm 11.4 4.9 6.7 73 2.2 NNW 30 35 16 19 1003.5 1003.5 0.0
31/10:00pm 11.4 4.4 6.9 74 2.2 N 33 37 18 20 1003.9 1003.9 0.0
31/09:30pm 11.5 5.1 7.0 74 2.2 N 30 35 16 19 1004.1 1004.1 0.0
31/09:00pm 11.3 4.5 7.0 75 2.1 N 32 35 17 19 1004.5 1004.5 0.0
31/08:30pm 11.3 4.0 7.0 75 2.1 NNW 35 41 19 22 1004.6 1004.6 0.0
31/08:00pm 11.5 4.2 7.0 74 2.2 NNW 35 41 19 22 1004.6 1004.6 0.0
31/07:30pm 11.5 5.9 7.0 74 2.2 NW 26 35 14 19 1004.5 1004.5 0.0
31/07:00pm 11.5 6.5 6.6 72 2.3 NNW 22 28 12 15 1004.8 1004.8 0.0
31/06:30pm 12.1 6.8 7.0 71 2.4 NNW 24 32 13 17 1004.8 1004.8 0.0
31/06:00pm 12.2 7.3 7.1 71 2.5 NNW 22 26 12 14 1004.8 1004.8 0.0
31/05:30pm 12.4 6.0 6.9 69 2.6 NNW 30 32 16 17 1004.4 1004.4 0.0
31/05:00pm 12.8 6.7 6.8 67 2.9 NNW 28 33 15 18 1004.5 1004.5 0.0
31/04:30pm 13.2 6.2 7.0 66 3.0 NNW 33 39 18 21 1004.3 1004.3 0.0
31/04:00pm 13.4 7.6 7.8 69 2.8 N 28 33 15 18 1004.2 1004.2 0.0
31/03:30pm 13.3 6.7 7.7 69 2.8 N 32 37 17 20 1004.2 1004.2 0.0
31/03:00pm 13.2 6.2 7.0 66 3.0 N 33 39 18 21 1004.2 1004.2 0.0
31/02:30pm 13.2 6.3 7.2 67 2.9 N 33 39 18 21 1004.3 1004.3 0.0
31/02:00pm 13.5 7.6 7.3 66 3.0 N 28 32 15 17 1004.3 1004.3 0.0
31/01:30pm 13.5 7.6 7.5 67 2.9 NNW 28 33 15 18 1004.6 1004.6 0.0
31/01:00pm 13.6 7.0 7.6 67 3.0 NNW 32 39 17 21 1004.9 1004.9 0.0
31/12:30pm 13.6 7.0 7.8 68 2.9 NNW 32 37 17 20 1005.3 1005.3 0.0
31/12:00pm 13.9 7.2 8.1 68 2.9 NW 33 39 18 21 1005.4 1005.4 0.0
31/11:30am 13.9 8.2 8.3 69 2.8 NW 28 33 15 18 1005.9 1005.9 0.0
31/11:00am 14.3 8.7 8.7 69 2.8 NW 28 32 15 17 1006.1 1006.1 0.0
31/10:30am 14.2 8.6 8.8 70 2.7 NW 28 32 15 17 1006.0 1006.0 0.0
31/10:00am 13.9 8.7 7.4 65 3.2 NW 24 30 13 16 1006.4 1006.4 0.0
31/09:30am 13.8 10.2 6.7 62 3.4 WNW 15 20 8 11 1006.5 1006.5 0.0
31/09:00am 13.4 8.9 6.3 62 3.4 WNW 19 24 10 13 1006.5 1006.5 0.0
31/08:30am 13.0 7.3 6.8 66 3.0 WNW 26 37 14 20 1006.1 1006.1 0.0
31/08:00am 12.6 7.5 7.7 72 2.4 WNW 24 32 13 17 1005.6 1005.6 0.0
31/07:30am 13.0 7.1 8.9 76 2.1 NW 30 37 16 20 1004.9 1004.9 0.0
31/07:00am 13.3 6.4 8.8 74 2.3 NW 35 39 19 21 1004.4 1004.4 0.0
31/06:30am 13.4 7.4 8.7 73 2.4 NW 30 39 16 21 1004.2 1004.2 0.0
31/06:00am 13.6 6.3 8.9 73 2.4 NW 37 54 20 29 1003.3 1003.3 0.0
31/05:30am 13.8 4.7 8.6 71 2.6 NW 46 57 25 31 1002.3 1002.3 0.0
31/05:08am 14.2 4.4 8.6 69 2.8 NNW 50 70 27 38 1002.8 1002.8 0.0
31/05:00am 14.4 4.2 8.6 68 2.9 NNW 52 65 28 35 1002.5 1002.5 0.0
31/04:37am 14.3 3.1 8.3 67 3.0 NNW 57 76 31 41 1001.9 1001.9 0.0
31/04:30am 14.3 3.1 8.3 67 3.0 NNW 57 72 31 39 1002.1 1002.1 0.0
31/04:00am 14.9 1.0 7.2 60 3.8 NNW 70 83 38 45 1001.5 1001.5 0.0
31/03:30am 15.2 1.6 7.7 61 3.7 NNW 69 91 37 49 1001.3 1001.3 0.0
31/03:02am 15.3 3.2 7.8 61 3.7 NNW 61 85 33 46 1001.6 1001.6 0.0
31/03:00am 15.0 3.0 8.0 63 3.5 NNW 61 76 33 41 1002.0 1002.0 0.0
31/02:31am 15.3 3.9 7.6 60 3.8 NNW 57 83 31 45 1001.7 1001.7 0.0
31/02:30am 15.2 3.8 7.5 60 3.8 NNW 57 74 31 40 1001.9 1001.9 0.0
31/02:00am 15.3 4.7 7.1 58 4.1 NNW 52 70 28 38 1003.2 1003.2 0.0
31/01:45am 15.2 5.5 7.3 59 3.9 NNW 48 72 26 39 1003.2 1003.2 0.0
31/01:30am 14.8 5.8 7.1 60 3.8 NNW 44 59 24 32 1003.6 1003.6 0.0
31/01:00am 15.1 5.4 5.6 53 4.5 N 46 65 25 35 1004.1 1004.1 0.0
31/12:58am 14.7 5.7 6.3 57 4.1 N 43 63 23 34 1004.3 1004.3 0.0
31/12:30am 14.2 5.2 6.3 59 3.8 N 43 56 23 30 1005.1 1005.1 0.0
31/12:00am 13.1 5.9 7.5 69 2.7 N 35 44 19 24 1005.8 1005.8 0.0
 
Date/Time
EST
Temp
°C
App
Temp
°C
Dew
Point
°C
Rel
Hum
%
Delta-T
°C
Wind Press
QNH
hPa
Press
MSL
hPa
Rain since
9am
mm
Dir  Spd
km/h
Gust
km/h
Spd
kts
Gust
kts
30/11:30pm 12.8 5.5 7.3 69 2.7 NNW 35 41 19 22 1006.3 1006.3 0.0
30/11:00pm 13.1 4.5 8.0 71 2.5 N 43 48 23 26 1006.6 1006.6 0.0
30/10:30pm 13.1 2.6 7.5 69 2.7 N 52 59 28 32 1006.6 1006.6 0.0
30/10:00pm 13.2 2.9 8.1 71 2.5 N 52 59 28 32 1006.6 1006.6 0.0
30/09:30pm 13.3 1.1 7.5 68 2.8 N 61 72 33 39 1006.3 1006.3 0.0
30/09:00pm 13.4 1.1 7.0 65 3.1 N 61 72 33 39 1006.5 1006.5 0.0
30/08:30pm 13.5 1.4 7.7 68 2.9 N 61 70 33 38 1006.8 1006.8 0.0
30/08:00pm 13.5 2.9 8.6 72 2.5 N 54 63 29 34 1007.7 1007.7 0.0
30/07:30pm 13.8 3.7 7.6 66 3.1 N 50 61 27 33 1008.5 1008.5 0.0
30/07:00pm 14.2 2.9 7.0 62 3.5 N 56 65 30 35 1008.4 1008.4 0.0
30/06:30pm 14.2 3.8 7.7 65 3.2 N 52 59 28 32 1009.5 1009.5 0.0
30/06:00pm 14.2 5.5 7.9 66 3.1 N 43 52 23 28 1010.2 1010.2 0.0
30/05:30pm 14.6 5.8 7.4 62 3.6 N 43 52 23 28 1010.7 1010.7 0.0
30/05:00pm 14.2 6.3 7.9 66 3.1 N 39 46 21 25 1011.2 1011.2 0.0
30/04:30pm 14.4 5.7 7.7 64 3.3 N 43 48 23 26 1011.7 1011.7 0.0
30/04:00pm 15.1 6.6 6.9 58 4.0 N 41 52 22 28 1012.0 1012.0 0.0
30/03:30pm 15.1 7.1 7.4 60 3.8 N 39 48 21 26 1012.5 1012.5 0.0
30/03:00pm 15.4 5.6 7.2 58 4.1 NNW 48 57 26 31 1012.3 1012.3 0.0
30/02:30pm 15.5 6.6 7.5 59 4.0 NNW 44 54 24 29 1012.9 1012.9 0.0
30/02:00pm 15.9 8.4 7.9 59 4.0 N 37 46 20 25 1013.5 1013.5 0.0
30/01:30pm 15.9 7.6 7.9 59 4.0 NNW 41 54 22 29 1013.9 1013.9 0.0
30/01:00pm 16.1 8.6 8.1 59 4.0 NNW 37 54 20 29 1014.6 1014.6 0.0
30/12:44pm 15.4 7.6 8.2 62 3.6 N 39 57 21 31 1015.1 1015.1 0.0
30/12:30pm 15.7 7.5 8.4 62 3.7 N 41 54 22 29 1015.1 1015.1 0.0
30/12:00pm 15.4 7.8 9.1 66 3.2 NNW 39 44 21 24 1016.1 1016.1 0.0
30/11:30am 15.3 8.6 9.7 69 2.9 NNW 35 44 19 24 1016.7 1016.7 0.0
30/11:00am 15.0 8.9 9.6 70 2.8 N 32 37 17 20 1017.3 1017.3 0.0
30/10:30am 14.9 7.3 9.1 68 3.0 NNW 39 50 21 27 1017.6 1017.6 0.0
30/10:00am 14.8 6.4 9.0 68 3.0 NNW 43 52 23 28 1017.7 1017.7 0.0
30/09:30am 14.2 6.3 9.2 72 2.6 NNW 41 50 22 27 1018.0 1018.0 0.0
30/09:00am 14.0 6.4 9.2 73 2.4 NNW 39 46 21 25 1017.9 1017.9 0.0
30/08:30am 13.9 5.9 9.1 73 2.4 N 41 46 22 25 1017.9 1017.9 0.0
30/08:00am 13.5 6.4 9.4 76 2.1 N 37 43 20 23 1018.0 1018.0 0.0
30/07:30am 13.5 5.9 9.0 74 2.3 N 39 52 21 28 1018.0 1018.0 0.0
30/07:00am 13.4 6.2 9.1 75 2.2 N 37 48 20 26 1018.1 1018.1 0.0
30/06:30am 13.3 6.2 9.4 77 2.0 N 37 43 20 23 1018.2 1018.2 0.0
30/06:00am 13.0 6.2 9.4 79 1.8 N 35 41 19 22 1018.2 1018.2 0.0
30/05:30am 12.7 6.8 9.0 78 1.9 N 30 33 16 18 1018.4 1018.4 0.0
30/05:00am 12.5 6.2 9.1 80 1.7 N 32 37 17 20 1018.4 1018.4 0.0
30/04:30am 12.3 6.7 8.8 79 1.7 N 28 32 15 17 1018.7 1018.7 0.0
30/04:00am 12.1 6.1 8.6 79 1.7 N 30 35 16 19 1018.6 1018.6 0.0
30/03:30am 11.9 5.5 8.4 79 1.7 N 32 35 17 19 1018.8 1018.8 0.0
30/03:00am 12.1 4.4 8.6 79 1.7 N 39 43 21 23 1018.7 1018.7 0.0
30/02:30am 12.5 7.0 9.0 79 1.8 N 28 32 15 17 1019.0 1019.0 0.0
30/02:00am 12.4 5.9 8.9 79 1.7 N 33 39 18 21 1019.2 1019.2 0.0
30/01:30am 12.4 5.5 8.9 79 1.8 N 35 41 19 22 1019.2 1019.2 0.0
30/01:00am 12.2 5.9 9.0 81 1.6 NNW 32 39 17 21 1019.2 1019.2 0.0
30/12:30am 12.2 7.4 8.9 80 1.7 N 24 30 13 16 1019.6 1019.6 0.0
30/12:00am 12.3 7.4 8.6 78 1.8 NNW 24 32 13 17 1019.7 1019.7 0.0
 
Date/Time
EST
Temp
°C
App
Temp
°C
Dew
Point
°C
Rel
Hum
%
Delta-T
°C
Wind Press
QNH
hPa
Press
MSL
hPa
Rain since
9am
mm
Dir  Spd
km/h
Gust
km/h
Spd
kts
Gust
kts
29/11:30pm 12.4 7.9 8.7 78 1.8 NNW 22 26 12 14 1019.8 1019.8 0.0
29/11:00pm 12.6 7.5 9.1 79 1.8 NNW 26 33 14 18 1019.6 1019.6 0.0
29/10:30pm 12.9 7.5 9.4 79 1.8 N 28 33 15 18 1019.7 1019.7 0.0
29/10:00pm 12.9 6.8 9.7 81 1.6 N 32 37 17 20 1019.8 1019.8 0.0
29/09:30pm 13.0 8.1 9.8 81 1.6 N 26 32 14 17 1019.9 1019.9 0.0
29/09:00pm 12.8 7.4 9.6 81 1.6 N 28 32 15 17 1020.0 1020.0 0.0
29/08:30pm 12.9 7.6 9.7 81 1.6 N 28 33 15 18 1019.7 1019.7 0.0
29/08:00pm 13.0 9.5 10.2 83 1.4 NNW 19 22 10 12 1019.8 1019.8 0.0
29/07:30pm 12.9 10.9 10.1 83 1.4 NNW 11 15 6 8 1019.8 1019.8 0.0
29/07:00pm 13.3 10.3 10.5 83 1.5 NNW 17 20 9 11 1019.7 1019.7 0.0
29/06:30pm 13.4 10.3 10.4 82 1.6 N 17 20 9 11 1019.6 1019.6 0.0
29/06:00pm 13.7 10.1 10.5 81 1.7 N 20 24 11 13 1019.4 1019.4 0.0
29/05:30pm 14.0 9.7 10.6 80 1.8 N 24 28 13 15 1019.2 1019.2 0.0
29/05:00pm 14.1 10.6 10.9 81 1.7 N 20 24 11 13 1019.0 1019.0 0.0
29/04:30pm 14.4 10.9 10.8 79 1.9 N 20 24 11 13 1018.8 1018.8 0.0
29/04:00pm 14.8 11.3 11.0 78 2.0 N 20 24 11 13 1018.8 1018.8 0.0
29/03:30pm 14.9 10.9 10.5 75 2.3 N 22 26 12 14 1018.6 1018.6 0.0
29/03:00pm 15.5 9.6 10.3 71 2.7 N 32 37 17 20 1018.4 1018.4 0.0
29/02:30pm 15.3 8.8 10.5 73 2.5 N 35 41 19 22 1018.3 1018.3 0.0
29/02:00pm 15.0 8.9 10.4 74 2.4 N 33 39 18 21 1018.5 1018.5 0.0
29/01:30pm 14.9 9.0 10.5 75 2.3 N 32 35 17 19 1018.9 1018.9 0.0
29/01:00pm 14.5 8.6 10.5 77 2.1 N 32 35 17 19 1019.3 1019.3 0.0
29/12:30pm 14.3 8.8 10.5 78 2.0 N 30 35 16 19 1019.5 1019.5 0.0
29/12:00pm 13.7 8.6 10.5 81 1.7 N 28 35 15 19 1019.5 1019.5 0.0
29/11:55am 13.7 9.7 10.5 81 1.7 N 22 30 12 16 1019.6 1019.6 0.0
29/11:30am 13.5 11.8 9.9 79 1.9 N 9 9 5 5 1020.3 1020.3 0.0

Other formats

Comma delimited format used in spreadsheet applications
http://www.bom.gov.au/fwo/IDT60801/IDT60801.95988.axf

JavaScript Object Notation format (JSON) in row-major order
http://www.bom.gov.au/fwo/IDT60801/IDT60801.95988.json

Data quality

Most of these data are generated automatically and are frequently updated. Quality checks on data are not normally performed. It is possible for incorrect values to appear. Refer to information at About Latest Weather Observations and please check the disclaimer before using these data.